ADDS METAR Data INFO
IDs: Format: Raw Decoded Include TAF

Data at: 2323 UTC 19 Oct 2017

KPKV 192315Z AUTO 10017G21KT 10SM -RA SCT036 BKN065 OVC080 24/20 A3005 RMK AO2 T02370199
KPKV 192255Z AUTO 04006KT 10SM OVC070 24/18 A3004 RMK AO2 T02430176
KPKV 192235Z AUTO 06004KT 10SM OVC080 24/17 A3005 RMK AO2 T02440172
KPKV 192215Z AUTO 05005KT 10SM OVC080 24/17 A3005 RMK AO2 T02380171
KPKV 192155Z AUTO 06007KT 10SM BKN075 OVC090 24/18 A3005 RMK AO2 T02370175
KPKV 192135Z AUTO 08010KT 10SM SCT034 SCT050 OVC090 24/17 A3005 RMK AO2 T02370167
KPKV 192115Z AUTO 09014KT 10SM SCT038 BKN080 OVC090 26/18 A3005 RMK AO2 T02600175
KPKV 192055Z AUTO 10011KT 10SM SCT039 SCT050 OVC090 26/19 A3005 RMK AO2 T02620191
KPKV 192035Z AUTO 10014G18KT 10SM BKN100 26/19 A3005 RMK AO2 T02640192
KPKV 192015Z AUTO 11014G19KT 10SM BKN090 27/19 A3005 RMK AO2 T02700192
KPKV 191955Z AUTO 11014G18KT 10SM SCT070 OVC090 28/19 A3006 RMK AO2 T02820194
KPKV 191935Z AUTO 11011KT 10SM SCT080 OVC090 27/20 A3006 RMK AO2 T02700195
KPKV 191915Z AUTO 11010KT 10SM OVC090 27/20 A3007 RMK AO2 T02650196
KPKV 191855Z AUTO 11013KT 10SM SCT042 OVC090 27/20 A3008 RMK AO2 T02670197
KPKV 191835Z AUTO 11012KT 10SM SCT042 BKN090 27/20 A3008 RMK AO2 T02730197
KPKV 191810Z AUTO 12012KT 10SM OVC090 28/20 A3010 RMK AO2 T02760197
KPKV 191755Z AUTO 11011KT 10SM SCT039 OVC090 27/20 A3010 RMK AO2 T02730197 10280 20157
KPKV 191735Z AUTO 09011KT 10SM SCT032 SCT039 OVC090 28/20 A3010 RMK AO2 T02770197
KPKV 191715Z AUTO 10008KT 10SM SCT032 BKN100 BKN120 28/19 A3011 RMK AO2 T02760194
KPKV 191655Z AUTO 08006KT 10SM SCT090 28/19 A3011 RMK AO2 T02750187
KPKV 191635Z AUTO 09009KT 10SM CLR 28/19 A3011 RMK AO2 T02790186
KPKV 191615Z AUTO 09007KT 10SM CLR 27/18 A3011 RMK AO2 T02730181
KPKV 191555Z AUTO 05006KT 10SM CLR 26/18 A3011 RMK AO2 T02630184
KPKV 191535Z AUTO 05007KT 10SM CLR 26/19 A3011 RMK AO2 T02560187
KPKV 191515Z AUTO 07007KT 10SM CLR 25/19 A3011 RMK AO2 T02450189
KPKV 191415Z AUTO 05006KT 10SM CLR 21/18 A3010 RMK AO2 T02110182
KPKV 191355Z AUTO 04007KT 10SM CLR 20/18 A3010 RMK AO2 T02020178
KPKV 191335Z AUTO 04007KT 10SM CLR 19/18 A3009 RMK AO2 T01920175
KPKV 191315Z AUTO 02003KT 10SM CLR 17/16 A3009 RMK AO2 T01730161
KPKV 191255Z AUTO 02003KT 10SM CLR 16/15 A3008 RMK AO2 T01610150
KPKV 191235Z AUTO 36005KT 10SM CLR 16/15 A3008 RMK AO2 T01580146
KPKV 191215Z AUTO 36005KT 10SM CLR 16/15 A3008 RMK AO2 T01610150
KPKV 191155Z AUTO 02003KT 10SM CLR 16/15 A3008 RMK AO2 T01630152 10186 20159
KPKV 191135Z AUTO 03003KT 10SM CLR 16/15 A3008 RMK AO2 T01600148
KPKV 191115Z AUTO 01004KT 10SM CLR 16/15 A3008 RMK AO2 T01600150
KPKV 191055Z AUTO 02003KT 10SM SCT034 16/15 A3008 RMK AO2 T01610150
KPKV 191035Z AUTO 01005KT 10SM SCT034 16/15 A3007 RMK AO2 T01610150
KPKV 191015Z AUTO 01005KT 10SM CLR 16/15 A3007 RMK AO2 T01600146
KPKV 190955Z AUTO 01004KT 10SM SCT031 16/15 A3007 RMK AO2 T01610150
KPKV 190935Z AUTO 35004KT 10SM CLR 17/15 A3007 RMK AO2 T01660154
KPKV 190915Z AUTO 01003KT 10SM CLR 17/15 A3007 RMK AO2 T01680153
KPKV 190855Z AUTO 00000KT 10SM CLR 18/16 A3007 RMK AO2 T01750162
KPKV 190835Z AUTO 06003KT 10SM CLR 17/16 A3007 RMK AO2 T01700156
KPKV 190815Z AUTO 05004KT 10SM CLR 17/16 A3008 RMK AO2 T01720158
KPKV 190755Z AUTO 04004KT 10SM CLR 18/16 A3009 RMK AO2 T01750161
KPKV 190735Z AUTO 03004KT 10SM CLR 17/16 A3009 RMK AO2 T01740158
KPKV 190715Z AUTO 03003KT 10SM CLR 18/16 A3009 RMK AO2 T01800162
KPKV 190655Z AUTO 04004KT 10SM CLR 18/16 A3009 RMK AO2 T01760161
KPKV 190635Z AUTO 03004KT 10SM CLR 18/16 A3009 RMK AO2 T01750157
KPKV 190615Z AUTO 00000KT 10SM CLR 18/16 A3010 RMK AO2 T01800162
KPKV 190555Z AUTO 05003KT 10SM SCT031 19/17 A3010 RMK AO2 T01860166 10219 20180 402750113
KPKV 190535Z AUTO 00000KT 10SM CLR 19/17 A3011 RMK AO2 T01890170
KPKV 190515Z AUTO 00000KT 10SM CLR 19/16 A3010 RMK AO2 T01870161
KPKV 190455Z AUTO 00000KT 10SM CLR 19/16 A3011 RMK AO2 T01850163
KPKV 190435Z AUTO 00000KT 10SM CLR 19/16 A3012 RMK AO2 T01880159
KPKV 190415Z AUTO 00000KT 10SM CLR 19/16 A3012 RMK AO2 T01910163
KPKV 190355Z AUTO 00000KT 10SM CLR 19/16 A3012 RMK AO2 T01900160
KPKV 190335Z AUTO 00000KT 10SM CLR 19/16 A3011 RMK AO2 T01880161
KPKV 190315Z AUTO 00000KT 10SM CLR 20/17 A3011 RMK AO2 T01980173
KPKV 190255Z AUTO 00000KT 10SM CLR 20/17 A3011 RMK AO2 T01980174
KPKV 190235Z AUTO 00000KT 10SM CLR 20/18 A3010 RMK AO2 T02010175
KPKV 190215Z AUTO 00000KT 10SM CLR 20/17 A3010 RMK AO2 T02010172
KPKV 190155Z AUTO 00000KT 10SM CLR 20/17 A3010 RMK AO2 T02020166
KPKV 190135Z AUTO 12004KT 10SM CLR 20/17 A3009 RMK AO2 T02030170
KPKV 190115Z AUTO 13004KT 10SM CLR 21/17 A3009 RMK AO2 T02050170
KPKV 190055Z AUTO 12005KT 10SM CLR 21/17 A3009 RMK AO2 T02060171
KPKV 190035Z AUTO 11003KT 10SM CLR 22/17 A3009 RMK AO2 T02160167
KPKV 190015Z AUTO 00000KT 10SM CLR 22/17 A3009 RMK AO2 T02170166
KPKV 182355Z AUTO 13004KT 10SM CLR 22/17 A3008 RMK AO2 T02200166 10275 20220
KPKV 182335Z AUTO 12005KT 10SM CLR 23/17 A3008 RMK AO2 T02290167
KPKV 182315Z AUTO 12007KT 10SM CLR 24/16 A3008 RMK AO2 T02350163
KPKV 182255Z AUTO 12009KT 10SM CLR 25/15 A3008 RMK AO2 T02470152
KPKV 182235Z AUTO 11007KT 10SM CLR 26/14 A3008 RMK AO2 T02570142
KPKV 182215Z AUTO 11007KT 10SM CLR 26/14 A3008 RMK AO2 T02630144
KPKV 182155Z AUTO 10006KT 10SM CLR 27/14 A3008 RMK AO2 T02660135
KPKV 182135Z AUTO 12005KT 7SM CLR 27/14 A3008 RMK AO2 T02670136
KPKV 182115Z AUTO 12005KT 5SM HZ CLR 27/14 A3009 RMK AO2 T02720143
KPKV 182055Z AUTO 07004KT 7SM CLR 27/14 A3009 RMK AO2 T02720140
KPKV 182035Z AUTO 10008KT 7SM CLR 28/14 A3009 RMK AO2 T02750140
KPKV 182015Z AUTO 07004KT 7SM CLR 27/14 A3010 RMK AO2 T02730136
KPKV 181955Z AUTO 11006KT 7SM CLR 27/14 A3010 RMK AO2 T02700138
KPKV 181935Z AUTO 10005KT 10SM CLR 27/13 A3011 RMK AO2 T02660126
KPKV 181915Z AUTO 08005KT 10SM CLR 27/12 A3011 RMK AO2 T02720124
KPKV 181855Z AUTO 00000KT 10SM CLR 26/14 A3013 RMK AO2 T02630141
KPKV 181835Z AUTO 07006KT 10SM CLR 26/15 A3014 RMK AO2 T02630149
KPKV 181815Z AUTO 00000KT 10SM CLR 26/15 A3015 RMK AO2 T02580147
KPKV 181755Z AUTO 08006KT 10SM CLR 26/15 A3016 RMK AO2 T02560148 10258 20115
KPKV 181735Z AUTO 09004KT 10SM CLR 26/15 A3017 RMK AO2 T02560147
KPKV 181715Z AUTO 10006KT 10SM CLR 25/14 A3017 RMK AO2 T02520143
KPKV 181655Z AUTO 03006KT 10SM CLR 25/14 A3018 RMK AO2 T02470139
KPKV 181635Z AUTO 05005KT 25/13 A3018 RMK AO2 T02500132 PWINO
KPKV 181615Z AUTO 06005KT 10SM CLR 24/13 A3018 RMK AO2 T02400126
KPKV 181555Z AUTO 05006KT 10SM CLR 22/12 A3019 RMK AO2 T02230118
KPKV 181535Z AUTO 05007KT 10SM CLR 22/12 A3018 RMK AO2 T02160121
KPKV 181515Z AUTO 05007KT 10SM CLR 21/12 A3018 RMK AO2 T02070119
KPKV 181455Z AUTO 04005KT 10SM CLR 20/12 A3018 RMK AO2 T01960122
KPKV 181435Z AUTO 04006KT 10SM CLR 19/12 A3017 RMK AO2 T01850122
KPKV 181415Z AUTO 06007KT 10SM CLR 17/12 A3017 RMK AO2 T01740124
KPKV 181355Z AUTO 04005KT 10SM CLR 16/13 A3016 RMK AO2 T01620127
KPKV 181335Z AUTO 01003KT 10SM CLR 15/12 A3016 RMK AO2 T01450122
KPKV 181320Z AUTO 02003KT 10SM CLR 13/11 A3015 RMK AO2 T01270109
KPKV 181250Z AUTO 02003KT 10SM CLR 12/09 A3015 RMK AO2 T01150092
KPKV 181235Z AUTO 01004KT 10SM CLR 12/10 A3014 RMK AO2 T01220097
KPKV 181220Z AUTO 01003KT 10SM CLR 13/10 A3014 RMK AO2 T01260103
KPKV 181155Z AUTO 03003KT 10SM CLR 12/10 A3014 RMK AO2 T01210099 10160 20113